Time;durP1;ratioP1;P1;durP2;ratioP2;P2;SDS_P1;SDS_P2;PMS_P1;PMS_P2;Temp;Humidity;BMP_temperature;BMP_pressure;BME280_temperature;BME280_humidity;BME280_pressure;Samples;Min_cycle;Max_cycle;Signal;HPM_P1;HPM_P2
2023/10/08 00:02:22;;;;;;;1.30;0.10;;;;;;;12.00;94.50;100203.20;110114;1267;22186;-52
2023/10/08 00:04:54;;;;;;;0.10;0.00;;;;;;;11.97;94.71;100212.66;110222;1274;23061;-54
2023/10/08 00:07:25;;;;;;;1.10;0.10;;;;;;;11.94;94.81;100215.94;110272;1276;22122;-54
2023/10/08 00:09:55;;;;;;;0.60;0.10;;;;;;;11.92;94.95;100219.08;110259;1277;22213;-52
2023/10/08 00:12:28;;;;;;;0.70;0.00;;;;;;;11.91;94.95;100227.23;110285;1276;22159;-53
2023/10/08 00:15:00;;;;;;;0.80;0.10;;;;;;;11.86;95.02;100233.02;110260;1276;22317;-54
2023/10/08 00:17:32;;;;;;;3.70;0.10;;;;;;;11.88;95.19;100230.30;110210;1277;22366;-55
2023/10/08 00:20:04;;;;;;;3.50;0.50;;;;;;;11.83;94.90;100222.51;110264;1276;22229;-56
2023/10/08 00:22:36;;;;;;;1.40;0.20;;;;;;;11.81;95.10;100213.22;110245;1274;22246;-55
2023/10/08 00:25:11;;;;;;;1.10;0.20;;;;;;;11.80;95.15;100212.20;110285;1274;22990;-55
2023/10/08 00:27:42;;;;;;;2.30;0.30;;;;;;;11.82;95.27;100210.27;110294;1277;22207;-52
2023/10/08 00:30:17;;;;;;;2.50;0.30;;;;;;;11.81;95.08;100212.10;110242;1277;22349;-52
2023/10/08 00:32:48;;;;;;;2.40;0.20;;;;;;;11.85;95.49;100211.75;110259;1276;23228;-52
2023/10/08 00:35:20;;;;;;;3.70;0.30;;;;;;;11.88;95.38;100229.34;110246;1270;22450;-54
2023/10/08 00:37:51;;;;;;;2.00;0.30;;;;;;;11.84;94.90;100233.71;110235;1277;22322;-55
2023/10/08 00:40:23;;;;;;;1.60;0.20;;;;;;;11.78;95.04;100240.44;110248;1277;22201;-53
2023/10/08 00:42:56;;;;;;;2.70;0.30;;;;;;;11.76;95.42;100230.84;110252;1277;22238;-53
2023/10/08 00:45:30;;;;;;;2.50;0.20;;;;;;;11.76;95.40;100229.73;110277;1277;23287;-54
2023/10/08 00:48:01;;;;;;;2.00;0.20;;;;;;;11.64;94.96;100232.86;110237;1277;22184;-53
2023/10/08 00:50:42;;;;;;;0.70;0.20;;;;;;;11.54;94.83;100232.33;110254;1277;22918;-55
2023/10/08 00:53:21;;;;;;;1.50;0.20;;;;;;;11.47;95.28;100225.56;110125;1261;22218;-53
2023/10/08 00:56:00;;;;;;;1.30;0.10;;;;;;;11.43;95.29;100220.08;110232;1266;22162;-53
2023/10/08 00:58:34;;;;;;;1.70;0.20;;;;;;;11.35;95.26;100225.95;110200;1274;22435;-53
2023/10/08 01:01:10;;;;;;;1.50;0.10;;;;;;;11.26;95.37;100223.61;110136;1276;22238;-53
2023/10/08 01:03:44;;;;;;;1.50;0.20;;;;;;;11.26;95.68;100215.38;110278;1277;22168;-54
2023/10/08 01:06:18;;;;;;;2.60;0.20;;;;;;;11.26;95.96;100217.36;110266;1277;22197;-55
2023/10/08 01:08:52;;;;;;;1.70;0.20;;;;;;;11.26;95.74;100224.89;110239;1277;22209;-52
2023/10/08 01:11:33;;;;;;;1.80;0.30;;;;;;;11.25;95.65;100226.67;110252;1277;22202;-54
2023/10/08 01:14:07;;;;;;;1.00;0.10;;;;;;;11.28;95.91;100225.17;110267;1271;23124;-53
2023/10/08 01:16:39;;;;;;;1.20;0.20;;;;;;;11.31;95.94;100218.77;110133;1277;23029;-53
2023/10/08 01:19:13;;;;;;;1.10;0.20;;;;;;;11.34;95.98;100212.41;110250;1268;22422;-54
2023/10/08 01:21:44;;;;;;;2.00;0.20;;;;;;;11.36;95.78;100206.65;110267;1273;22222;-52
2023/10/08 01:24:17;;;;;;;2.40;0.10;;;;;;;11.37;95.96;100201.95;110281;1277;22524;-54
2023/10/08 01:26:48;;;;;;;1.30;0.10;;;;;;;11.34;95.87;100194.64;110274;1277;22383;-54
2023/10/08 01:29:21;;;;;;;1.40;0.20;;;;;;;11.34;95.97;100207.83;110228;1270;22411;-53
2023/10/08 01:31:53;;;;;;;0.60;0.20;;;;;;;11.33;95.97;100225.36;110224;1274;23331;-54
2023/10/08 01:34:28;;;;;;;1.50;0.10;;;;;;;11.29;95.80;100232.57;110234;1269;22175;-54
2023/10/08 01:37:04;;;;;;;0.70;0.10;;;;;;;11.25;96.07;100231.17;110252;1276;22173;-53
2023/10/08 01:39:35;;;;;;;1.10;0.20;;;;;;;11.24;96.21;100232.83;110195;1277;22700;-54
2023/10/08 01:42:15;;;;;;;1.50;0.20;;;;;;;11.27;96.43;100235.94;110270;1277;22620;-55
2023/10/08 01:44:47;;;;;;;1.50;0.20;;;;;;;11.30;96.61;100242.38;110155;1277;22227;-54
2023/10/08 01:47:19;;;;;;;2.80;0.30;;;;;;;11.26;96.44;100234.64;110254;1277;22135;-54
2023/10/08 01:49:53;;;;;;;1.00;0.20;;;;;;;11.23;96.59;100243.02;110230;1277;23277;-54
2023/10/08 01:52:24;;;;;;;2.40;0.40;;;;;;;11.24;96.66;100242.33;110140;1277;22215;-53
2023/10/08 01:54:55;;;;;;;1.60;0.20;;;;;;;11.25;96.56;100248.25;110286;1276;22276;-53
2023/10/08 01:57:26;;;;;;;4.70;0.60;;;;;;;11.18;96.58;100254.19;110256;1277;23552;-54
2023/10/08 01:59:57;;;;;;;5.20;0.50;;;;;;;11.06;96.21;100257.43;110238;1276;22175;-53
2023/10/08 02:02:28;;;;;;;10.10;0.60;;;;;;;10.97;96.11;100269.59;110217;1277;22361;-53
2023/10/08 02:04:59;;;;;;;4.90;0.40;;;;;;;10.91;96.36;100280.42;110232;1277;22907;-55
2023/10/08 02:07:30;;;;;;;5.60;0.40;;;;;;;10.87;96.20;100285.06;110259;1277;22183;-55
2023/10/08 02:10:01;;;;;;;4.30;0.60;;;;;;;10.86;96.56;100285.81;110245;1277;22240;-53
2023/10/08 02:12:32;;;;;;;4.40;0.50;;;;;;;10.86;96.53;100279.13;110280;1277;23321;-53
2023/10/08 02:15:03;;;;;;;5.80;0.30;;;;;;;10.86;96.62;100288.52;110231;1277;22165;-55
2023/10/08 02:17:35;;;;;;;7.40;1.00;;;;;;;10.87;96.65;100291.77;110232;1277;22265;-54
2023/10/08 02:20:08;;;;;;;1.70;0.30;;;;;;;10.87;96.65;100296.33;110252;1274;22894;-53
2023/10/08 02:22:39;;;;;;;3.00;0.40;;;;;;;10.80;96.32;100284.94;110294;1277;22987;-53
2023/10/08 02:25:11;;;;;;;4.20;0.70;;;;;;;10.74;96.33;100279.50;110239;1277;22490;-56
2023/10/08 02:27:42;;;;;;;4.00;0.30;;;;;;;10.70;96.41;100294.98;110247;1277;22181;-53
2023/10/08 02:30:14;;;;;;;3.10;0.30;;;;;;;10.63;96.52;100324.06;110235;1277;22365;-53
2023/10/08 02:32:46;;;;;;;2.00;0.30;;;;;;;10.55;96.61;100334.73;110251;1277;22294;-55
2023/10/08 02:35:17;;;;;;;3.40;0.30;;;;;;;10.49;96.90;100349.32;110246;1277;22190;-53
2023/10/08 02:37:48;;;;;;;3.80;0.40;;;;;;;10.44;97.00;100351.64;110255;1277;22157;-52
2023/10/08 02:40:26;;;;;;;8.00;0.70;;;;;;;10.38;97.42;100361.75;110254;1277;22213;-55
2023/10/08 02:42:58;;;;;;;3.30;0.40;;;;;;;10.32;97.52;100379.60;110250;1276;22283;-56
2023/10/08 02:45:29;;;;;;;3.80;0.40;;;;;;;10.27;98.09;100374.76;110218;1277;22417;-54
2023/10/08 02:48:00;;;;;;;4.20;0.40;;;;;;;10.22;98.40;100372.70;110277;1266;22229;-56
2023/10/08 02:50:32;;;;;;;9.70;0.60;;;;;;;10.18;98.56;100372.27;110240;1277;23176;-56
2023/10/08 02:53:10;;;;;;;4.80;0.40;;;;;;;10.14;98.60;100367.83;110247;1277;23104;-55
2023/10/08 02:55:43;;;;;;;7.80;0.60;;;;;;;10.13;98.84;100361.84;110120;1277;22166;-54
2023/10/08 02:58:15;;;;;;;4.70;0.40;;;;;;;10.10;99.01;100365.63;110245;1277;22931;-55
2023/10/08 03:00:47;;;;;;;4.40;1.00;;;;;;;10.08;99.15;100377.02;110236;1277;22197;-54
2023/10/08 03:03:19;;;;;;;3.60;0.50;;;;;;;10.06;99.51;100386.21;110232;1277;22251;-53
2023/10/08 03:05:51;;;;;;;2.20;0.40;;;;;;;10.05;99.56;100384.77;110237;1277;22194;-54
2023/10/08 03:08:23;;;;;;;2.90;0.40;;;;;;;10.04;99.92;100384.39;110277;1276;22156;-55
2023/10/08 03:10:55;;;;;;;6.00;0.50;;;;;;;10.02;99.75;100376.20;110227;1276;22178;-55
2023/10/08 03:13:27;;;;;;;7.80;0.30;;;;;;;10.02;99.90;100381.55;110254;1276;22220;-56
2023/10/08 03:16:08;;;;;;;4.90;0.30;;;;;;;10.01;99.74;100384.73;110229;1277;22122;-57
2023/10/08 03:18:42;;;;;;;2.20;0.40;;;;;;;10.01;100.00;100389.80;110219;1276;22121;-53
2023/10/08 03:21:42;;;;;;;6.60;0.30;;;;;;;9.99;99.93;100393.65;110277;1277;23514;-57
2023/10/08 03:24:29;;;;;;;2.70;0.20;;;;;;;9.96;100.00;100391.88;110266;1276;22337;-55
2023/10/08 03:27:12;;;;;;;1.70;0.30;;;;;;;9.93;99.98;100396.58;110248;1262;22207;-61
2023/10/08 03:29:43;;;;;;;3.50;0.30;;;;;;;9.92;99.94;100401.71;110222;1277;23351;-54
2023/10/08 03:32:16;;;;;;;4.10;0.30;;;;;;;9.95;99.88;100405.57;110247;1277;22147;-56
2023/10/08 03:34:49;;;;;;;2.40;0.30;;;;;;;9.98;99.82;100411.98;110239;1277;22193;-57
2023/10/08 03:37:29;;;;;;;4.00;0.40;;;;;;;9.98;99.99;100429.33;110240;1277;22302;-58
2023/10/08 03:40:21;;;;;;;3.80;0.20;;;;;;;9.98;99.89;100429.16;110239;1276;22204;-54
2023/10/08 03:42:55;;;;;;;3.60;0.30;;;;;;;9.97;99.74;100422.83;110231;1277;22273;-58
2023/10/08 03:48:15;;;;;;;3.70;0.50;;;;;;;9.98;99.94;100441.50;110243;1277;22256;-58
2023/10/08 03:50:56;;;;;;;2.20;0.30;;;;;;;9.98;100.00;100455.70;110244;1277;22653;-54
2023/10/08 03:53:30;;;;;;;6.60;0.50;;;;;;;9.95;100.00;100464.51;110157;1277;22437;-55
2023/10/08 03:56:05;;;;;;;2.50;0.30;;;;;;;9.94;100.00;100471.48;110173;1277;23405;-55
2023/10/08 03:58:41;;;;;;;3.30;0.40;;;;;;;9.97;100.00;100466.92;110230;1277;22168;-55
2023/10/08 04:01:18;;;;;;;3.30;0.40;;;;;;;9.97;100.00;100463.30;110183;1276;22529;-55
2023/10/08 04:03:58;;;;;;;2.90;0.40;;;;;;;9.99;100.00;100462.11;110259;1277;22756;-59
2023/10/08 04:06:37;;;;;;;2.40;0.30;;;;;;;10.02;100.00;100466.84;110242;1277;22251;-55
2023/10/08 04:09:23;;;;;;;3.30;0.40;;;;;;;10.03;100.00;100467.83;110245;1268;23186;-55
2023/10/08 04:11:55;;;;;;;5.60;0.50;;;;;;;10.03;100.00;100481.90;110265;1276;22321;-55
2023/10/08 04:14:28;;;;;;;3.60;0.70;;;;;;;10.03;100.00;100483.92;110259;1276;23003;-55
2023/10/08 04:16:59;;;;;;;8.30;0.80;;;;;;;10.03;100.00;100480.26;110249;1277;22154;-56
2023/10/08 04:19:31;;;;;;;4.60;0.70;;;;;;;10.04;100.00;100475.25;110285;1276;22167;-53
2023/10/08 04:22:03;;;;;;;3.50;0.50;;;;;;;10.05;100.00;100482.14;110219;1277;22172;-53
2023/10/08 04:24:35;;;;;;;7.80;0.80;;;;;;;10.04;100.00;100483.99;110248;1276;22992;-53
2023/10/08 04:27:09;;;;;;;7.00;0.60;;;;;;;10.03;99.98;100477.53;110239;1276;22188;-53
2023/10/08 04:29:42;;;;;;;7.90;0.60;;;;;;;10.03;100.00;100460.55;110129;1276;22244;-53
2023/10/08 04:32:21;;;;;;;3.00;0.40;;;;;;;10.03;100.00;100444.77;110261;1276;22202;-53
2023/10/08 04:34:56;;;;;;;4.90;0.50;;;;;;;10.04;99.97;100452.30;110096;1276;22831;-54
2023/10/08 04:37:32;;;;;;;3.20;0.40;;;;;;;10.04;99.97;100463.85;110106;1276;22269;-55
2023/10/08 04:40:05;;;;;;;3.20;0.40;;;;;;;10.03;99.94;100462.94;110076;1276;22193;-55
2023/10/08 04:42:37;;;;;;;3.40;0.30;;;;;;;10.04;99.95;100463.45;110235;1276;22289;-54
2023/10/08 04:45:13;;;;;;;4.30;0.30;;;;;;;10.04;99.98;100472.63;110242;1277;22213;-55
2023/10/08 04:47:44;;;;;;;3.90;0.50;;;;;;;10.04;100.00;100471.76;110239;1276;22220;-54
2023/10/08 04:50:17;;;;;;;4.50;1.20;;;;;;;10.03;100.00;100471.77;110232;1277;22155;-56
2023/10/08 04:52:58;;;;;;;6.10;0.40;;;;;;;10.04;100.00;100481.70;110270;1277;22188;-55
2023/10/08 04:55:29;;;;;;;;;;;;;;;10.04;100.00;100494.45;110249;1276;23044;-57
2023/10/08 04:58:04;;;;;;;3.30;0.30;;;;;;;10.04;100.00;100509.27;110251;1277;22209;-56
2023/10/08 05:00:51;;;;;;;3.40;0.60;;;;;;;10.05;100.00;100523.27;110193;1277;22164;-56
2023/10/08 05:03:23;;;;;;;3.60;0.40;;;;;;;10.05;100.00;100519.36;110258;1277;22130;-56
2023/10/08 05:06:07;;;;;;;3.70;0.50;;;;;;;10.04;100.00;100499.94;110275;1276;22124;-56
2023/10/08 05:11:45;;;;;;;5.90;0.50;;;;;;;10.06;100.00;100525.67;110216;1270;22176;-56
2023/10/08 05:14:28;;;;;;;5.80;0.60;;;;;;;10.06;100.00;100544.50;110255;1272;22133;-54
2023/10/08 05:17:03;;;;;;;8.20;0.90;;;;;;;10.06;100.00;100559.39;110251;1276;22133;-54
2023/10/08 05:19:56;;;;;;;5.00;0.60;;;;;;;10.05;100.00;100559.19;110261;1277;22183;-55
2023/10/08 05:22:44;;;;;;;4.60;0.80;;;;;;;10.05;100.00;100559.89;110234;1277;22165;-56
2023/10/08 05:25:35;;;;;;;8.30;0.90;;;;;;;10.04;100.00;100560.45;110231;1270;22400;-56
2023/10/08 05:28:11;;;;;;;6.40;1.00;;;;;;;10.03;100.00;100574.59;110246;1276;22204;-57
2023/10/08 05:30:53;;;;;;;4.10;0.60;;;;;;;10.02;100.00;100583.23;110257;1276;22928;-66
2023/10/08 05:33:44;;;;;;;7.30;0.90;;;;;;;10.01;100.00;100596.05;110250;1277;22382;-66
2023/10/08 05:36:27;;;;;;;7.90;1.30;;;;;;;10.01;100.00;100607.98;110243;1277;22300;-66
2023/10/08 05:39:01;;;;;;;6.00;0.80;;;;;;;10.00;100.00;100597.53;110250;1274;22354;-66
2023/10/08 05:41:51;;;;;;;6.90;0.80;;;;;;;10.01;100.00;100608.71;110199;1277;23330;-67
2023/10/08 05:44:38;;;;;;;6.00;0.80;;;;;;;10.01;100.00;100620.91;110217;1276;22174;-66
2023/10/08 05:47:28;;;;;;;8.30;0.80;;;;;;;10.00;100.00;100627.63;110263;1277;22166;-66
2023/10/08 05:52:50;;;;;;;4.80;0.80;;;;;;;10.00;100.00;100651.95;110205;1276;22395;-65
2023/10/08 05:55:26;;;;;;;6.20;1.70;;;;;;;10.00;100.00;100658.33;110273;1266;22202;-65
2023/10/08 05:58:13;;;;;;;7.70;0.90;;;;;;;10.00;100.00;100656.65;110261;1276;22142;-67
2023/10/08 06:01:05;;;;;;;5.20;0.90;;;;;;;10.02;100.00;100655.85;110221;1276;22278;-65
2023/10/08 06:03:37;;;;;;;7.70;0.90;;;;;;;10.04;100.00;100664.53;110257;1277;22324;-64
2023/10/08 06:06:35;;;;;;;6.70;1.20;;;;;;;10.04;100.00;100677.02;110244;1273;22170;-62
2023/10/08 06:09:21;;;;;;;5.90;1.40;;;;;;;10.05;100.00;100685.77;110229;1277;23368;-56
2023/10/08 06:12:09;;;;;;;6.50;1.40;;;;;;;10.05;100.00;100686.48;110224;1277;22208;-57
2023/10/08 06:20:16;;;;;;;10.20;1.70;;;;;;;10.11;100.00;100708.45;109765;1283;22346;-55
2023/10/08 06:22:47;;;;;;;13.40;2.10;;;;;;;10.14;100.00;100713.04;109790;1283;22202;-54
2023/10/08 06:25:23;;;;;;;13.70;2.40;;;;;;;10.16;100.00;100710.81;109783;1283;22222;-57
2023/10/08 06:27:55;;;;;;;10.30;2.50;;;;;;;10.18;100.00;100722.73;109812;1281;22257;-57
2023/10/08 06:30:29;;;;;;;10.00;2.40;;;;;;;10.21;100.00;100728.39;109888;1281;23132;-55
2023/10/08 06:33:00;;;;;;;11.60;2.20;;;;;;;10.23;100.00;100731.46;109759;1283;22337;-58
2023/10/08 06:35:33;;;;;;;16.90;2.40;;;;;;;10.26;100.00;100741.04;109813;1283;23074;-57
2023/10/08 06:38:07;;;;;;;10.50;2.10;;;;;;;10.29;100.00;100745.41;109772;1277;22212;-58
2023/10/08 06:40:44;;;;;;;15.40;3.20;;;;;;;10.31;100.00;100752.08;109708;1277;23050;-55
2023/10/08 06:43:21;;;;;;;11.90;2.60;;;;;;;10.33;100.00;100758.69;109712;1279;22253;-56
2023/10/08 06:45:57;;;;;;;14.80;2.60;;;;;;;10.35;100.00;100765.88;109801;1275;22220;-57
2023/10/08 06:48:29;;;;;;;10.40;3.00;;;;;;;10.37;100.00;100762.84;109790;1276;22297;-56
2023/10/08 06:51:07;;;;;;;9.90;2.20;;;;;;;10.37;100.00;100768.64;109739;1277;23073;-59
2023/10/08 06:53:38;;;;;;;10.80;2.80;;;;;;;10.40;100.00;100776.27;109699;1277;22312;-59
2023/10/08 06:56:12;;;;;;;12.40;2.70;;;;;;;10.42;100.00;100782.60;109697;1276;22437;-58
2023/10/08 06:58:47;;;;;;;10.00;2.70;;;;;;;10.46;99.63;100783.15;110023;1269;22201;-57
2023/10/08 07:01:21;;;;;;;10.40;2.00;;;;;;;10.47;99.58;100792.11;110162;1270;22260;-58
2023/10/08 07:03:56;;;;;;;11.30;2.30;;;;;;;10.50;99.73;100802.77;110182;1270;22179;-62
2023/10/08 07:06:31;;;;;;;10.50;1.80;;;;;;;10.54;99.46;100802.35;110139;1270;22921;-58
2023/10/08 07:09:05;;;;;;;11.10;2.20;;;;;;;10.58;99.21;100808.97;110126;1263;22205;-61
2023/10/08 07:11:39;;;;;;;7.50;1.80;;;;;;;10.60;98.52;100813.27;110136;1269;22365;-57
2023/10/08 07:14:10;;;;;;;9.40;1.60;;;;;;;10.60;97.52;100819.48;110168;1264;22183;-61
2023/10/08 07:16:42;;;;;;;10.30;1.70;;;;;;;10.61;96.79;100826.16;110180;1270;22265;-60
2023/10/08 07:19:19;;;;;;;7.90;1.70;;;;;;;10.63;97.54;100832.13;110172;1270;22333;-63
2023/10/08 07:21:54;;;;;;;7.40;1.70;;;;;;;10.68;97.54;100840.60;110148;1270;22819;-61
2023/10/08 07:24:25;;;;;;;3.60;1.00;;;;;;;10.69;95.91;100847.41;110153;1270;22444;-60
2023/10/08 07:26:56;;;;;;;6.90;1.20;;;;;;;10.71;95.50;100856.84;110161;1270;22295;-59
2023/10/08 07:29:28;;;;;;;8.20;1.40;;;;;;;10.74;95.38;100866.37;110157;1270;22386;-58
2023/10/08 07:32:09;;;;;;;9.90;1.30;;;;;;;10.73;94.74;100863.40;110168;1270;22318;-57
2023/10/08 07:34:41;;;;;;;8.50;1.50;;;;;;;10.72;93.91;100861.02;109974;1270;22349;-58
2023/10/08 07:37:13;;;;;;;5.30;1.00;;;;;;;10.69;93.79;100867.70;110094;1269;22178;-58
2023/10/08 07:39:46;;;;;;;6.10;1.10;;;;;;;10.67;93.57;100877.28;110129;1270;22228;-59
2023/10/08 07:42:21;;;;;;;7.90;1.20;;;;;;;10.65;93.13;100878.06;110154;1270;22177;-58
2023/10/08 07:44:54;;;;;;;11.20;0.90;;;;;;;10.67;93.74;100879.02;110173;1270;22640;-58
2023/10/08 07:47:27;;;;;;;8.00;1.20;;;;;;;10.71;94.37;100882.50;110255;1276;22331;-56
2023/10/08 07:49:59;;;;;;;6.50;0.90;;;;;;;10.76;93.12;100884.61;110137;1270;22332;-55
2023/10/08 07:52:30;;;;;;;8.70;1.00;;;;;;;10.80;93.01;100887.05;110177;1267;22275;-57
2023/10/08 07:55:05;;;;;;;6.80;0.70;;;;;;;10.86;92.97;100885.70;110217;1273;22272;-61
2023/10/08 07:57:36;;;;;;;6.60;0.70;;;;;;;10.89;91.57;100890.41;110222;1276;22195;-56
2023/10/08 08:00:18;;;;;;;2.60;0.50;;;;;;;10.89;89.24;100899.13;110212;1276;22238;-55
2023/10/08 08:02:52;;;;;;;5.50;0.60;;;;;;;10.87;90.39;100896.20;110233;1270;22150;-57
2023/10/08 08:05:23;;;;;;;2.40;0.30;;;;;;;10.87;89.04;100896.44;110284;1276;22185;-58
2023/10/08 08:07:56;;;;;;;2.70;0.50;;;;;;;10.84;87.45;100902.36;110262;1269;22205;-57
2023/10/08 08:10:27;;;;;;;3.50;0.40;;;;;;;10.82;86.57;100900.94;110221;1270;22324;-57
2023/10/08 08:12:58;;;;;;;4.90;0.50;;;;;;;10.80;87.23;100914.98;110219;1276;22199;-58
2023/10/08 08:18:35;;;;;;;3.50;0.60;;;;;;;10.81;88.53;100918.31;110204;1270;23367;-61
2023/10/08 08:21:15;;;;;;;3.80;0.50;;;;;;;10.82;87.90;100925.05;110209;1276;22249;-60
2023/10/08 08:23:48;;;;;;;2.70;0.40;;;;;;;10.83;85.82;100931.55;110223;1276;22898;-59
2023/10/08 08:26:29;;;;;;;8.00;0.60;;;;;;;10.82;85.21;100928.48;110232;1276;22167;-59
2023/10/08 08:29:01;;;;;;;6.00;0.60;;;;;;;10.84;85.89;100932.56;110226;1273;22131;-61
2023/10/08 08:31:35;;;;;;;3.00;0.60;;;;;;;10.86;85.36;100939.09;110194;1264;22228;-60
2023/10/08 08:34:14;;;;;;;5.60;0.70;;;;;;;10.88;85.04;100940.52;110046;1276;22223;-60
2023/10/08 08:36:48;;;;;;;5.50;0.70;;;;;;;10.90;85.41;100945.29;110192;1270;22238;-60
2023/10/08 08:39:32;;;;;;;4.30;0.60;;;;;;;10.92;85.57;100946.63;110195;1276;23386;-60
2023/10/08 08:42:05;;;;;;;5.10;0.60;;;;;;;10.97;84.19;100955.25;110210;1276;22847;-59
2023/10/08 08:44:45;;;;;;;3.90;0.50;;;;;;;11.00;79.38;100958.83;110202;1270;22170;-61
2023/10/08 08:47:17;;;;;;;4.80;0.30;;;;;;;10.91;80.04;100964.23;110230;1261;22151;-61
2023/10/08 08:49:50;;;;;;;2.90;0.20;;;;;;;10.79;77.62;100969.89;110203;1270;22217;-61
2023/10/08 08:52:22;;;;;;;4.50;0.50;;;;;;;10.74;78.65;100969.59;110200;1269;22396;-59
2023/10/08 08:54:53;;;;;;;3.70;0.20;;;;;;;10.75;77.20;100975.67;110217;1267;22194;-58
2023/10/08 08:57:24;;;;;;;1.60;0.20;;;;;;;10.78;75.21;100983.79;110190;1276;22176;-59
2023/10/08 08:59:59;;;;;;;2.30;0.30;;;;;;;10.82;75.72;100983.64;110184;1276;22956;-59
2023/10/08 09:02:32;;;;;;;7.30;0.40;;;;;;;10.84;76.10;100982.90;110242;1270;22869;-60
2023/10/08 09:05:13;;;;;;;2.00;0.30;;;;;;;10.85;75.12;100983.56;110247;1270;22237;-59
2023/10/08 09:07:56;;;;;;;2.70;0.40;;;;;;;10.88;76.29;100985.51;110228;1276;22158;-60
2023/10/08 09:10:28;;;;;;;4.20;0.40;;;;;;;10.91;75.75;100980.98;110174;1276;22125;-61
2023/10/08 09:13:00;;;;;;;5.30;0.30;;;;;;;10.92;74.52;100985.02;110260;1261;22345;-59
2023/10/08 09:15:33;;;;;;;3.90;0.20;;;;;;;10.94;72.85;100982.95;110173;1270;22208;-62
2023/10/08 09:18:04;;;;;;;4.20;0.20;;;;;;;10.93;72.59;100982.60;110118;1270;22248;-58
2023/10/08 09:20:42;;;;;;;5.20;0.40;;;;;;;10.94;74.50;100985.96;110152;1270;22435;-57
2023/10/08 09:23:17;;;;;;;3.80;0.40;;;;;;;10.98;73.00;100995.92;110109;1270;22416;-61
2023/10/08 09:25:49;;;;;;;3.10;0.30;;;;;;;11.02;71.68;100996.95;110149;1267;22425;-60
2023/10/08 09:28:25;;;;;;;3.50;0.30;;;;;;;11.04;69.23;101005.84;110124;1267;22317;-59
2023/10/08 09:30:58;;;;;;;4.10;0.50;;;;;;;11.03;68.95;101012.10;110207;1270;22204;-63
2023/10/08 09:33:31;;;;;;;1.90;0.20;;;;;;;11.03;67.75;101010.12;110180;1270;22334;-58
2023/10/08 09:36:04;;;;;;;2.80;0.20;;;;;;;11.03;68.36;101018.55;110230;1270;22201;-61
2023/10/08 09:44:34;;;;;;;3.30;0.20;;;;;;;11.10;65.50;101036.70;110237;1270;22208;-61
2023/10/08 09:47:08;;;;;;;1.80;0.20;;;;;;;11.13;65.54;101043.98;106109;1277;5430916;-61
2023/10/08 09:49:42;;;;;;;1.30;0.10;;;;;;;11.15;67.11;101047.21;110284;1276;22319;-61
2023/10/08 09:52:18;;;;;;;3.40;0.20;;;;;;;11.17;67.22;101047.67;110235;1277;22317;-59
2023/10/08 09:54:56;;;;;;;1.30;0.20;;;;;;;11.20;67.09;101055.04;110183;1277;22193;-60
2023/10/08 09:57:27;;;;;;;1.60;0.20;;;;;;;11.23;65.39;101060.51;110214;1273;22887;-58
2023/10/08 09:59:58;;;;;;;3.50;0.30;;;;;;;11.26;67.09;101063.73;110262;1276;22336;-61
2023/10/08 10:02:31;;;;;;;1.20;0.20;;;;;;;11.27;65.94;101069.13;110165;1270;23461;-60
2023/10/08 10:05:02;;;;;;;6.00;0.40;;;;;;;11.29;64.09;101073.50;109646;1271;22413;-61
2023/10/08 10:07:33;;;;;;;1.70;0.20;;;;;;;11.31;64.26;101072.85;110114;1270;22152;-58
2023/10/08 10:10:26;;;;;;;1.30;0.20;;;;;;;11.34;64.52;101077.51;110135;1270;22226;-58
2023/10/08 10:13:00;;;;;;;3.00;0.30;;;;;;;11.38;64.25;101075.19;110161;1266;22282;-59
2023/10/08 10:15:34;;;;;;;1.90;0.20;;;;;;;11.42;65.46;101076.88;110197;1273;22220;-58
2023/10/08 10:18:14;;;;;;;1.70;0.20;;;;;;;11.46;64.99;101080.29;110157;1257;22409;-58
2023/10/08 10:20:46;;;;;;;;;;;;;;;11.48;64.28;101078.27;110169;1270;22440;-57
2023/10/08 10:23:39;;;;;;;2.20;0.20;;;;;;;11.50;64.35;101078.44;110179;1270;22445;-58
2023/10/08 10:29:26;;;;;;;1.80;0.30;;;;;;;11.53;62.45;101080.45;102924;1305;545052;-57
2023/10/08 10:31:58;;;;;;;2.50;0.10;;;;;;;11.52;61.33;101082.59;105372;1278;22897;-58
2023/10/08 10:34:34;;;;;;;0.80;0.10;;;;;;;11.52;61.95;101087.84;105306;1278;25515;-58
2023/10/08 10:37:10;;;;;;;1.70;0.10;;;;;;;11.53;61.31;101085.58;109724;1275;22227;-57
2023/10/08 10:39:41;;;;;;;3.00;0.50;;;;;;;11.54;61.50;101088.96;110379;1275;22205;-57
2023/10/08 10:42:21;;;;;;;2.40;0.30;;;;;;;11.55;60.76;101086.54;106291;1267;5387712;-60
2023/10/08 10:44:53;;;;;;;0.70;0.10;;;;;;;11.55;59.65;101096.92;110437;1265;23273;-59
2023/10/08 10:47:27;;;;;;;2.20;0.10;;;;;;;11.59;59.52;101095.40;110469;1266;23513;-60
2023/10/08 10:50:25;;;;;;;1.80;0.20;;;;;;;11.62;58.14;101087.57;110539;1266;22334;-60
2023/10/08 10:52:57;;;;;;;1.00;0.20;;;;;;;11.66;57.27;101098.42;110513;1265;23327;-60
2023/10/08 10:55:32;;;;;;;2.10;0.20;;;;;;;11.71;58.28;101098.48;110468;1260;22423;-59
2023/10/08 10:58:11;;;;;;;1.50;0.30;;;;;;;11.75;58.31;101099.10;110821;1257;22189;-59
2023/10/08 11:00:59;;;;;;;0.60;0.10;;;;;;;11.81;57.03;101097.88;110770;1271;22324;-60
2023/10/08 11:03:34;;;;;;;2.20;0.20;;;;;;;11.83;55.97;101098.01;110599;1263;22433;-61
2023/10/08 11:06:15;;;;;;;2.00;0.20;;;;;;;11.84;55.54;101101.58;110378;1274;22172;-60
2023/10/08 11:08:46;;;;;;;3.50;0.20;;;;;;;11.86;57.26;101102.20;110419;1274;22195;-61
2023/10/08 11:11:20;;;;;;;1.50;0.20;;;;;;;11.89;57.78;101098.36;110372;1274;22374;-59
2023/10/08 11:13:54;;;;;;;2.50;0.20;;;;;;;11.91;56.78;101095.64;110422;1269;22192;-61
2023/10/08 11:16:25;;;;;;;1.70;0.10;;;;;;;11.95;56.75;101093.17;110320;1266;22354;-62
2023/10/08 11:19:01;;;;;;;1.40;0.20;;;;;;;11.99;55.71;101102.44;110400;1274;22215;-58
2023/10/08 11:21:34;;;;;;;3.00;0.20;;;;;;;12.01;54.89;101103.13;110410;1264;22218;-61
2023/10/08 11:24:09;;;;;;;0.90;0.20;;;;;;;12.02;56.07;101096.69;110366;1274;22358;-58
2023/10/08 11:26:54;;;;;;;1.10;0.10;;;;;;;12.04;54.83;101096.90;110389;1275;22243;-60
2023/10/08 11:29:32;;;;;;;1.50;0.10;;;;;;;12.04;53.96;101102.33;110394;1272;22293;-60
2023/10/08 11:32:07;;;;;;;0.70;0.10;;;;;;;12.05;54.22;101094.54;110437;1274;22136;-61
2023/10/08 11:34:39;;;;;;;1.60;0.20;;;;;;;12.06;53.50;101094.15;110382;1266;22399;-61
2023/10/08 11:37:20;;;;;;;0.80;0.10;;;;;;;12.10;53.51;101094.80;110410;1274;22166;-60
2023/10/08 11:39:53;;;;;;;2.80;0.10;;;;;;;12.09;52.64;101097.63;110442;1267;22272;-59
2023/10/08 11:42:40;;;;;;;1.50;0.30;;;;;;;12.13;54.17;101094.10;110407;1274;22442;-60
2023/10/08 11:45:19;;;;;;;0.80;0.10;;;;;;;12.19;53.67;101090.63;110353;1274;23291;-61
2023/10/08 11:47:55;;;;;;;3.90;0.20;;;;;;;12.27;53.33;101093.52;110401;1274;22219;-61
2023/10/08 11:50:34;;;;;;;1.80;0.20;;;;;;;12.33;52.12;101100.13;110327;1267;23334;-59
2023/10/08 11:53:06;;;;;;;2.00;0.10;;;;;;;12.34;52.36;101094.60;110471;1267;22141;-60
2023/10/08 11:55:38;;;;;;;2.50;0.30;;;;;;;12.35;51.37;101095.91;110416;1267;23358;-60
2023/10/08 11:58:17;;;;;;;1.90;0.30;;;;;;;12.37;51.91;101085.98;110422;1269;22863;-58
2023/10/08 12:00:52;;;;;;;2.10;0.30;;;;;;;12.36;51.40;101090.39;110410;1275;22209;-58
2023/10/08 12:03:26;;;;;;;1.70;0.10;;;;;;;12.37;52.25;101088.52;110409;1274;22262;-58
2023/10/08 12:05:59;;;;;;;1.50;0.30;;;;;;;12.41;51.62;101096.51;110387;1274;22181;-58
2023/10/08 12:08:30;;;;;;;1.70;0.10;;;;;;;12.42;50.95;101099.55;110449;1274;22444;-59
2023/10/08 12:11:01;;;;;;;0.90;0.10;;;;;;;12.42;50.31;101096.10;110427;1266;22352;-62
2023/10/08 12:13:33;;;;;;;2.40;0.10;;;;;;;12.41;50.90;101087.05;110457;1274;22299;-57
2023/10/08 12:16:07;;;;;;;1.80;0.20;;;;;;;12.40;50.95;101088.14;110445;1268;22172;-57
2023/10/08 12:18:43;;;;;;;2.00;0.20;;;;;;;12.39;49.15;101100.50;110343;1267;22260;-55